createdAt,value
2023-03-07T00:01:27.461Z,93401.09
2023-03-07T00:03:55.203Z,93410.22
2023-03-07T00:06:22.021Z,93406.66
2023-03-07T00:08:54.001Z,93409.38
2023-03-07T00:11:20.852Z,93405.19
2023-03-07T00:13:47.605Z,93403.16
2023-03-07T00:16:18.956Z,93402.44
2023-03-07T00:18:46.062Z,93414.06
2023-03-07T00:21:17.382Z,93419.78
2023-03-07T00:23:45.682Z,93417.22
2023-03-07T00:26:16.393Z,93417.88
2023-03-07T00:28:43.782Z,93415.28
2023-03-07T00:31:11.794Z,93409.44
2023-03-07T00:33:39.610Z,93410.78
2023-03-07T00:36:24.508Z,93399.91
2023-03-07T00:38:52.124Z,93403.16
2023-03-07T00:41:22.793Z,93395.63
2023-03-07T00:43:49.984Z,93390.88
2023-03-07T00:46:19.343Z,93394.94
2023-03-07T00:48:46.777Z,93393.06
2023-03-07T00:51:16.544Z,93377.00
2023-03-07T00:53:44.024Z,93387.09
2023-03-07T00:56:25.232Z,93393.59
2023-03-07T00:58:52.849Z,93388.16
2023-03-07T01:01:23.550Z,93386.28
2023-03-07T01:03:53.752Z,93396.38
2023-03-07T01:06:25.011Z,93397.72
2023-03-07T01:08:51.811Z,93393.22
2023-03-07T01:11:18.664Z,93392.28
2023-03-07T01:13:45.756Z,93386.84
2023-03-07T01:16:18.643Z,93385.59
2023-03-07T01:18:46.128Z,93383.44
2023-03-07T01:21:19.727Z,93395.56
2023-03-07T01:23:47.018Z,93379.50
2023-03-07T01:26:20.122Z,93380.84
2023-03-07T01:28:47.542Z,93381.81
2023-03-07T01:31:14.566Z,93373.66
2023-03-07T01:33:41.695Z,93374.13
2023-03-07T01:36:28.409Z,93383.78
2023-03-07T01:38:58.348Z,93385.00
2023-03-07T01:41:25.312Z,93380.09
2023-03-07T01:43:52.096Z,93370.88
2023-03-07T01:46:18.793Z,93376.47
2023-03-07T01:49:03.907Z,93373.03
2023-03-07T01:51:33.232Z,93365.16
2023-03-07T01:54:01.896Z,93362.56
2023-03-07T01:56:29.416Z,93353.38
2023-03-07T01:58:56.565Z,93352.25
2023-03-07T02:01:26.381Z,93349.81
2023-03-07T02:04:06.532Z,93351.31
2023-03-07T02:06:37.818Z,93348.88
2023-03-07T02:09:13.395Z,93358.78
2023-03-07T02:11:44.685Z,93350.34
2023-03-07T02:14:11.441Z,93351.44
2023-03-07T02:16:38.934Z,93346.53
2023-03-07T02:19:33.432Z,93351.00
2023-03-07T02:22:17.514Z,93341.22
2023-03-07T02:24:57.196Z,93343.53
2023-03-07T02:27:26.082Z,93348.31
2023-03-07T02:29:53.313Z,93348.31
2023-03-07T02:32:20.567Z,93344.78
2023-03-07T02:34:47.325Z,93339.78
2023-03-07T02:37:21.938Z,93344.97
2023-03-07T02:39:48.997Z,93342.16
2023-03-07T02:42:22.601Z,93343.09
2023-03-07T02:45:00.449Z,93339.03
2023-03-07T02:47:28.138Z,93329.91
2023-03-07T02:49:55.162Z,93331.22
2023-03-07T02:52:23.047Z,93333.81
2023-03-07T02:54:49.814Z,93329.19
2023-03-07T02:57:16.599Z,93331.13
2023-03-07T02:59:43.379Z,93331.38
2023-03-07T03:02:10.129Z,93331.66
2023-03-07T03:04:36.900Z,93321.03
2023-03-07T03:07:03.802Z,93324.69
2023-03-07T03:09:31.588Z,93315.59
2023-03-07T03:11:58.482Z,93318.31
2023-03-07T03:14:25.605Z,93313.94
2023-03-07T03:16:53.712Z,93312.47
2023-03-07T03:19:21.043Z,93319.41
2023-03-07T03:21:48.784Z,93317.09
2023-03-07T03:24:15.707Z,93305.03
2023-03-07T03:26:42.528Z,93321.19
2023-03-07T03:29:09.883Z,93314.03
2023-03-07T03:31:36.774Z,93299.09
2023-03-07T03:34:05.731Z,93316.47
2023-03-07T03:36:33.142Z,93310.25
2023-03-07T03:39:00.505Z,93314.84
2023-03-07T03:41:27.662Z,93297.44
2023-03-07T03:43:54.518Z,93313.19
2023-03-07T03:46:21.402Z,93321.94
2023-03-07T03:48:53.473Z,93311.03
2023-03-07T03:51:20.853Z,93314.97
2023-03-07T03:53:47.676Z,93306.13
2023-03-07T03:56:19.068Z,93313.75
2023-03-07T03:58:55.392Z,93284.66
2023-03-07T04:01:24.862Z,93307.53
2023-03-07T04:03:53.311Z,93309.44
2023-03-07T04:06:29.372Z,93304.84
2023-03-07T04:08:57.244Z,93315.84
2023-03-07T04:11:25.226Z,93303.19
2023-03-07T04:13:53.213Z,93290.69
2023-03-07T04:16:22.485Z,93294.88
2023-03-07T04:18:51.112Z,93293.66
2023-03-07T04:21:19.094Z,93296.41
2023-03-07T04:23:45.823Z,93272.34
2023-03-07T04:26:12.731Z,93294.22
2023-03-07T04:28:45.291Z,93289.47
2023-03-07T04:31:15.065Z,93286.63
2023-03-07T04:33:42.427Z,93282.41
2023-03-07T04:36:10.504Z,93283.63
2023-03-07T04:38:39.183Z,93283.88
2023-03-07T04:41:07.347Z,93278.03
2023-03-07T04:43:34.708Z,93282.81
2023-03-07T04:46:01.838Z,93282.53
2023-03-07T04:48:28.710Z,93280.63
2023-03-07T04:50:55.470Z,93279.94
2023-03-07T04:53:22.562Z,93292.72
2023-03-07T04:55:49.341Z,93290.56
2023-03-07T04:58:16.494Z,93291.78
2023-03-07T05:00:45.306Z,93296.13
2023-03-07T05:03:13.717Z,93282.81
2023-03-07T05:05:40.671Z,93281.47
2023-03-07T05:08:08.089Z,93280.66
2023-03-07T05:10:35.506Z,93297.63
2023-03-07T05:13:02.330Z,93287.16
2023-03-07T05:15:29.248Z,93281.03
2023-03-07T05:17:56.381Z,93285.13
2023-03-07T05:20:23.639Z,93285.78
2023-03-07T05:22:50.797Z,93282.00
2023-03-07T05:25:17.850Z,93275.75
2023-03-07T05:27:44.732Z,93275.19
2023-03-07T05:30:12.767Z,93275.75
2023-03-07T05:32:40.322Z,93280.22
2023-03-07T05:35:09.608Z,93274.66
2023-03-07T05:37:36.549Z,93278.59
2023-03-07T05:40:09.212Z,93273.16
2023-03-07T05:42:35.947Z,93270.56
2023-03-07T05:45:05.941Z,93275.31
2023-03-07T05:47:33.008Z,93274.94
2023-03-07T05:49:59.729Z,93268.81
2023-03-07T05:52:27.551Z,93270.28
2023-03-07T05:54:54.380Z,93275.19
2023-03-07T05:57:22.897Z,93272.19
2023-03-07T05:59:49.692Z,93270.72
2023-03-07T06:02:16.510Z,93275.06
2023-03-07T06:04:44.296Z,93261.91
2023-03-07T06:07:10.999Z,93260.66
2023-03-07T06:09:37.746Z,93261.34
2023-03-07T06:12:05.000Z,93257.78
2023-03-07T06:14:32.967Z,93261.34
2023-03-07T06:16:59.697Z,93265.97
2023-03-07T06:19:26.592Z,93263.25
2023-03-07T06:21:53.316Z,93251.41
2023-03-07T06:24:20.053Z,93252.78
2023-03-07T06:26:46.843Z,93247.63
2023-03-07T06:29:13.806Z,93249.22
2023-03-07T06:31:40.685Z,93250.72
2023-03-07T06:34:08.637Z,93249.91
2023-03-07T06:36:35.473Z,93237.13
2023-03-07T06:39:02.272Z,93237.13
2023-03-07T06:41:29.048Z,93239.88
2023-03-07T06:43:55.923Z,93237.13
2023-03-07T06:46:22.675Z,93240.41
2023-03-07T06:48:52.100Z,93244.06
2023-03-07T06:51:18.950Z,93246.66
2023-03-07T06:53:45.795Z,93239.19
2023-03-07T06:56:12.567Z,93244.75
2023-03-07T06:58:39.338Z,93249.91
2023-03-07T07:01:06.094Z,93242.28
2023-03-07T07:03:32.865Z,93247.47
2023-03-07T07:05:59.628Z,93245.16
2023-03-07T07:08:26.386Z,93245.28
2023-03-07T07:10:53.157Z,93244.75
2023-03-07T07:13:19.892Z,93242.16
2023-03-07T07:15:46.628Z,93248.94
2023-03-07T07:18:14.164Z,93244.16
2023-03-07T07:20:41.034Z,93239.94
2023-03-07T07:23:07.803Z,93250.50
2023-03-07T07:25:34.593Z,93237.97
2023-03-07T07:28:01.350Z,93233.44
2023-03-07T07:30:28.109Z,93239.56
2023-03-07T07:32:55.011Z,93238.72
2023-03-07T07:35:22.402Z,93238.00
2023-03-07T07:37:49.161Z,93229.94
2023-03-07T07:40:16.137Z,93242.19
2023-03-07T07:42:43.530Z,93232.75
2023-03-07T07:45:11.292Z,93230.53
2023-03-07T07:47:38.100Z,93231.03
2023-03-07T07:50:05.661Z,93217.50
2023-03-07T07:52:32.366Z,93226.00
2023-03-07T07:54:59.124Z,93229.94
2023-03-07T07:57:25.874Z,93229.22
2023-03-07T07:59:52.641Z,93219.59
2023-03-07T08:02:19.401Z,93226.03
2023-03-07T08:04:47.432Z,93229.75
2023-03-07T08:07:14.651Z,93231.53
2023-03-07T08:09:41.379Z,93233.88
2023-03-07T08:12:12.621Z,93242.97
2023-03-07T08:14:40.585Z,93235.97
2023-03-07T08:17:07.456Z,93226.75
2023-03-07T08:19:34.215Z,93221.94
2023-03-07T08:22:02.317Z,93225.66
2023-03-07T08:24:39.919Z,93222.31
2023-03-07T08:27:07.142Z,93223.06
2023-03-07T08:29:35.319Z,93226.84
2023-03-07T08:32:02.129Z,93225.31
2023-03-07T08:34:28.890Z,93222.63
2023-03-07T08:36:55.667Z,93211.16
2023-03-07T08:39:22.476Z,93205.31
2023-03-07T08:41:49.201Z,93219.34
2023-03-07T08:44:16.004Z,93208.63
2023-03-07T08:46:42.808Z,93218.13
2023-03-07T08:49:09.617Z,93212.63
2023-03-07T08:51:36.406Z,93212.38
2023-03-07T08:54:03.150Z,93210.31
2023-03-07T08:56:29.882Z,93213.28
2023-03-07T08:58:56.610Z,93213.66
2023-03-07T09:01:23.475Z,93206.31
2023-03-07T09:03:50.296Z,93206.84
2023-03-07T09:06:20.391Z,93200.38
2023-03-07T09:08:48.308Z,93199.47
2023-03-07T09:11:15.707Z,93202.38
2023-03-07T09:13:51.476Z,93197.56
2023-03-07T09:16:19.248Z,93187.81
2023-03-07T09:18:46.030Z,93178.38
2023-03-07T09:21:12.791Z,93180.69
2023-03-07T09:23:39.557Z,93172.63
2023-03-07T09:26:06.664Z,93193.75
2023-03-07T09:28:33.408Z,93183.69
2023-03-07T09:31:00.473Z,93174.78
2023-03-07T09:33:27.533Z,93173.66
2023-03-07T09:35:54.436Z,93174.63
2023-03-07T09:38:21.195Z,93170.06
2023-03-07T09:40:48.821Z,93157.75
2023-03-07T09:43:23.052Z,93158.09
2023-03-07T09:46:20.346Z,93155.50
2023-03-07T09:49:18.242Z,93151.94
2023-03-07T09:51:49.475Z,93164.91
2023-03-07T09:54:26.074Z,93145.56
2023-03-07T09:56:59.414Z,93147.69
2023-03-07T09:59:39.986Z,93139.22
2023-03-07T10:02:32.132Z,93143.78
2023-03-07T10:05:22.577Z,93133.34
2023-03-07T10:07:49.675Z,93142.13
2023-03-07T10:10:52.399Z,93134.09
2023-03-07T10:13:26.368Z,93124.28
2023-03-07T10:16:12.149Z,93129.28
2023-03-07T10:19:34.436Z,93134.41
2023-03-07T10:22:43.807Z,93129.72
2023-03-07T10:25:31.706Z,93111.53
2023-03-07T10:28:33.336Z,93108.69
2023-03-07T10:31:24.686Z,93097.22
2023-03-07T10:33:54.680Z,93093.00
2023-03-07T10:36:41.581Z,93102.19
2023-03-07T10:39:43.917Z,93100.34
2023-03-07T10:42:16.688Z,93086.19
2023-03-07T10:44:46.241Z,93097.16
2023-03-07T10:47:30.993Z,93079.47
2023-03-07T10:50:27.356Z,93086.28
2023-03-07T10:52:58.055Z,93075.09
2023-03-07T10:55:43.321Z,93065.72
2023-03-07T10:58:27.106Z,93061.53
2023-03-07T11:01:15.809Z,93055.41
2023-03-07T11:03:58.802Z,93060.75
2023-03-07T15:21:23.566Z,92945.19
2023-03-07T15:23:59.071Z,92951.25
2023-03-07T15:26:27.854Z,92932.63
2023-03-07T15:29:05.593Z,92954.81
2023-03-07T15:31:54.055Z,92948.00
2023-03-07T15:35:16.514Z,92950.41
2023-03-07T15:38:08.180Z,92938.22
2023-03-07T15:40:36.773Z,92962.44
2023-03-07T15:43:04.479Z,92953.09
2023-03-07T15:45:40.464Z,92936.13
2023-03-07T15:48:24.752Z,92952.19
2023-03-07T15:51:00.458Z,92929.56
2023-03-07T15:53:32.044Z,92960.66
2023-03-07T15:56:20.383Z,92951.66
2023-03-07T15:58:48.008Z,92954.84
2023-03-07T16:01:26.802Z,92945.78
2023-03-07T16:03:57.797Z,92943.06
2023-03-07T16:06:44.783Z,92933.72
2023-03-07T16:09:17.991Z,92948.00
2023-03-07T16:11:46.401Z,92929.59
2023-03-07T16:14:30.449Z,92950.84
2023-03-07T16:17:01.349Z,92944.81
2023-03-07T16:19:28.848Z,92936.19
2023-03-07T16:21:55.698Z,92944.16
2023-03-07T16:24:22.518Z,92936.78
2023-03-07T16:26:49.621Z,92941.09
2023-03-07T16:29:21.730Z,92951.25
2023-03-07T16:31:49.038Z,92963.34
2023-03-07T16:34:21.981Z,92940.78
2023-03-07T16:36:48.780Z,92940.34
2023-03-07T16:39:18.120Z,92945.78
2023-03-07T16:41:47.879Z,92949.78
2023-03-07T16:44:20.405Z,92967.47
2023-03-07T16:46:59.073Z,92960.16
2023-03-07T16:49:25.875Z,92964.13
2023-03-07T16:52:05.151Z,92971.47
2023-03-07T16:54:33.329Z,92973.38
2023-03-07T16:57:02.055Z,92966.00
2023-03-07T16:59:35.390Z,92960.97
2023-03-07T17:02:03.378Z,92971.53
2023-03-07T17:04:30.217Z,92980.41
2023-03-07T17:07:04.394Z,92985.13
2023-03-07T17:09:31.476Z,93007.28
2023-03-07T17:11:58.482Z,93002.84
2023-03-07T17:14:25.361Z,93015.53
2023-03-07T17:16:52.119Z,92999.72
2023-03-07T17:19:28.297Z,93036.56
2023-03-07T17:21:56.146Z,93042.81
2023-03-07T17:24:22.902Z,93032.84
2023-03-07T17:26:50.292Z,93051.03
2023-03-07T17:29:34.605Z,93049.09
2023-03-07T17:32:01.422Z,93045.88
2023-03-07T17:34:32.124Z,93055.28
2023-03-07T17:37:00.380Z,93036.78
2023-03-07T17:39:29.777Z,93060.38
2023-03-07T17:41:58.202Z,93063.44
2023-03-07T17:44:25.276Z,93049.50
2023-03-07T17:46:53.537Z,93077.28
2023-03-07T17:49:21.583Z,93088.84
2023-03-07T17:51:48.974Z,93100.41
2023-03-07T17:54:17.088Z,93099.28
2023-03-07T17:56:43.896Z,93095.69
2023-03-07T17:59:10.690Z,93096.53
2023-03-07T18:01:38.129Z,93106.44
2023-03-07T18:04:06.534Z,93117.00
2023-03-07T18:06:34.173Z,93114.22
2023-03-07T18:09:01.804Z,93128.34
2023-03-07T18:11:28.706Z,93111.81
2023-03-07T18:13:55.900Z,93108.22
2023-03-07T18:16:22.783Z,93114.41
2023-03-07T18:18:58.735Z,93119.25
2023-03-07T18:21:26.639Z,93109.38
2023-03-07T18:23:53.607Z,93113.41
2023-03-07T18:26:21.693Z,93109.03
2023-03-07T18:28:50.086Z,93091.16
2023-03-07T18:31:21.541Z,93107.91
2023-03-07T18:33:51.114Z,93102.06
2023-03-07T18:36:18.557Z,93087.75
2023-03-07T18:38:45.542Z,93097.34
2023-03-07T18:41:16.117Z,93114.56
2023-03-07T18:43:43.427Z,93121.53
2023-03-07T18:46:14.351Z,93104.81
2023-03-07T18:48:41.290Z,93111.81
2023-03-07T18:51:11.773Z,93124.63
2023-03-07T18:53:39.599Z,93121.41
2023-03-07T18:56:11.009Z,93122.34
2023-03-07T18:58:38.079Z,93124.47
2023-03-07T19:01:28.740Z,93132.75
2023-03-07T19:03:57.705Z,93115.56
2023-03-07T19:06:31.600Z,93116.84
2023-03-07T19:08:58.444Z,93141.69
2023-03-07T19:11:25.196Z,93122.03
2023-03-07T19:13:51.932Z,93143.16
2023-03-07T19:16:23.724Z,93148.34
2023-03-07T19:18:51.757Z,93164.28
2023-03-07T19:21:25.908Z,93162.97
2023-03-07T19:23:54.581Z,93156.13
2023-03-07T19:26:23.205Z,93156.63
2023-03-07T19:28:53.064Z,93148.69
2023-03-07T19:31:25.589Z,93155.50
2023-03-07T19:33:53.100Z,93162.31
2023-03-07T19:36:27.181Z,93148.97
2023-03-07T19:38:57.712Z,93163.94
2023-03-07T19:41:27.196Z,93136.34
2023-03-07T19:43:56.464Z,93164.44
2023-03-07T19:46:23.793Z,93152.75
2023-03-07T19:48:50.704Z,93158.09
2023-03-07T19:51:20.942Z,93169.47
2023-03-07T19:53:47.740Z,93164.28
2023-03-07T19:56:27.685Z,93164.78
2023-03-07T19:58:55.108Z,93167.03
2023-03-07T20:01:23.775Z,93171.72
2023-03-07T20:03:51.609Z,93175.81
2023-03-07T20:06:26.603Z,93179.88
2023-03-07T20:08:55.148Z,93181.81
2023-03-07T20:11:27.203Z,93175.97
2023-03-07T20:13:56.559Z,93191.72
2023-03-07T20:16:27.171Z,93182.63
2023-03-07T20:18:54.363Z,93185.72
2023-03-07T20:21:26.274Z,93168.66
2023-03-07T20:23:55.801Z,93166.69
2023-03-07T20:26:32.437Z,93165.56
2023-03-07T20:29:00.571Z,93155.47
2023-03-07T20:31:28.533Z,93180.66
2023-03-07T20:33:58.847Z,93191.22
2023-03-07T20:36:32.052Z,93177.22
2023-03-07T20:39:02.983Z,93200.28
2023-03-07T20:41:32.402Z,93199.31
2023-03-07T20:44:05.419Z,93208.06
2023-03-07T20:46:33.152Z,93218.13
2023-03-07T20:49:01.901Z,93219.13
2023-03-07T20:51:32.044Z,93209.00
2023-03-07T20:54:05.135Z,93225.59
2023-03-07T20:56:34.293Z,93232.25
2023-03-07T20:59:01.811Z,93214.38
2023-03-07T21:01:33.751Z,93244.75
2023-03-07T21:04:08.269Z,93247.06
2023-03-07T21:06:40.682Z,93237.59
2023-03-07T21:09:10.264Z,93247.19
2023-03-07T21:11:40.454Z,93248.03
2023-03-07T21:14:08.516Z,93251.75
2023-03-07T21:16:35.405Z,93245.69
2023-03-07T21:19:07.290Z,93250.38
2023-03-07T21:21:35.904Z,93239.47
2023-03-07T21:24:03.244Z,93233.97
2023-03-07T21:26:34.211Z,93243.09
2023-03-07T21:29:01.104Z,93234.31
2023-03-07T21:31:31.587Z,93236.56
2023-03-07T21:34:02.067Z,93240.97
2023-03-07T21:36:31.565Z,93249.88
2023-03-07T21:38:59.326Z,93255.75
2023-03-07T21:41:26.656Z,93255.09
2023-03-07T21:43:55.372Z,93243.19
2023-03-07T21:46:23.089Z,93252.75
2023-03-07T21:48:50.282Z,93254.91
2023-03-07T21:51:17.699Z,93270.63
2023-03-07T21:53:44.456Z,93285.84
2023-03-07T21:56:19.333Z,93290.28
2023-03-07T21:58:50.409Z,93283.25
2023-03-07T22:01:22.132Z,93302.50
2023-03-07T22:03:53.209Z,93310.88
2023-03-07T22:06:20.286Z,93300.16
2023-03-07T22:08:47.041Z,93296.91
2023-03-07T22:11:14.595Z,93304.97
2023-03-07T22:13:42.347Z,93292.38
2023-03-07T22:16:15.572Z,93304.66
2023-03-07T22:18:42.589Z,93294.22
2023-03-07T22:21:14.178Z,93309.84
2023-03-07T22:23:42.276Z,93306.22
2023-03-07T22:26:11.942Z,93313.72
2023-03-07T22:28:40.664Z,93311.97
2023-03-07T22:31:12.892Z,93308.75
2023-03-07T22:33:40.789Z,93311.19
2023-03-07T22:36:10.876Z,93309.59
2023-03-07T22:38:37.811Z,93297.19
2023-03-07T22:41:08.626Z,93303.38
2023-03-07T22:43:36.300Z,93305.50
2023-03-07T22:46:04.157Z,93321.72
2023-03-07T22:48:31.653Z,93307.13
2023-03-07T22:50:58.784Z,93315.41
2023-03-07T22:53:31.059Z,93311.81
2023-03-07T22:56:01.584Z,93292.66
2023-03-07T22:58:29.843Z,93282.41
2023-03-07T23:00:56.705Z,93297.88
2023-03-07T23:03:23.654Z,93290.50
2023-03-07T23:05:50.582Z,93293.78
2023-03-07T23:08:17.427Z,93298.84
2023-03-07T23:10:44.228Z,93286.88
2023-03-07T23:13:10.967Z,93305.38
2023-03-07T23:15:41.481Z,93304.44
2023-03-07T23:18:09.045Z,93302.50
2023-03-07T23:20:39.042Z,93298.72
2023-03-07T23:23:06.357Z,93305.13
2023-03-07T23:25:33.772Z,93295.66
2023-03-07T23:28:00.575Z,93294.34
2023-03-07T23:30:27.384Z,93280.72
2023-03-07T23:32:55.188Z,93273.50
2023-03-07T23:35:21.978Z,93299.25
2023-03-07T23:37:48.768Z,93290.78
2023-03-07T23:40:15.582Z,93292.34
2023-03-07T23:42:42.321Z,93292.97
2023-03-07T23:45:09.718Z,93280.13
2023-03-07T23:47:36.487Z,93301.66
2023-03-07T23:50:03.709Z,93302.13
2023-03-07T23:52:30.496Z,93290.38
2023-03-07T23:54:57.307Z,93293.06
2023-03-07T23:57:24.294Z,93282.41
2023-03-07T23:59:51.080Z,93292.97
